sensor_id;sensor_type;location;lat;lon;timestamp;P1;durP1;ratioP1;P2;durP2;ratioP2
12982;SDS011;6556;51.052;4.498;2022-07-29T00:00:48;1.40;;;1.30;;
12982;SDS011;6556;51.052;4.498;2022-07-29T00:03:15;2.08;;;1.30;;
12982;SDS011;6556;51.052;4.498;2022-07-29T00:05:42;1.47;;;1.10;;
12982;SDS011;6556;51.052;4.498;2022-07-29T00:08:09;1.03;;;0.90;;
12982;SDS011;6556;51.052;4.498;2022-07-29T00:10:36;1.97;;;1.30;;
12982;SDS011;6556;51.052;4.498;2022-07-29T00:13:03;1.60;;;1.07;;
12982;SDS011;6556;51.052;4.498;2022-07-29T00:15:30;1.53;;;1.10;;
12982;SDS011;6556;51.052;4.498;2022-07-29T00:17:57;0.93;;;0.93;;
12982;SDS011;6556;51.052;4.498;2022-07-29T00:20:24;1.03;;;0.97;;
12982;SDS011;6556;51.052;4.498;2022-07-29T00:22:50;1.90;;;1.27;;
12982;SDS011;6556;51.052;4.498;2022-07-29T00:25:17;1.77;;;1.40;;
12982;SDS011;6556;51.052;4.498;2022-07-29T00:27:44;0.73;;;0.73;;
12982;SDS011;6556;51.052;4.498;2022-07-29T00:30:14;0.90;;;0.90;;
12982;SDS011;6556;51.052;4.498;2022-07-29T00:32:41;2.17;;;1.20;;
12982;SDS011;6556;51.052;4.498;2022-07-29T00:35:08;1.20;;;1.10;;
12982;SDS011;6556;51.052;4.498;2022-07-29T00:37:53;1.40;;;1.30;;
12982;SDS011;6556;51.052;4.498;2022-07-29T00:40:19;2.80;;;1.37;;
12982;SDS011;6556;51.052;4.498;2022-07-29T00:42:47;1.03;;;1.00;;
12982;SDS011;6556;51.052;4.498;2022-07-29T00:45:13;1.00;;;1.00;;
12982;SDS011;6556;51.052;4.498;2022-07-29T00:47:40;1.00;;;1.00;;
12982;SDS011;6556;51.052;4.498;2022-07-29T00:50:08;1.10;;;1.10;;
12982;SDS011;6556;51.052;4.498;2022-07-29T00:52:35;1.87;;;1.25;;
12982;SDS011;6556;51.052;4.498;2022-07-29T00:55:04;2.45;;;1.52;;
12982;SDS011;6556;51.052;4.498;2022-07-29T00:57:31;1.20;;;1.10;;
12982;SDS011;6556;51.052;4.498;2022-07-29T00:59:57;2.53;;;1.10;;
12982;SDS011;6556;51.052;4.498;2022-07-29T01:02:24;0.83;;;0.83;;
12982;SDS011;6556;51.052;4.498;2022-07-29T01:04:51;2.40;;;1.48;;
12982;SDS011;6556;51.052;4.498;2022-07-29T01:07:18;1.33;;;1.20;;
12982;SDS011;6556;51.052;4.498;2022-07-29T01:09:45;0.90;;;0.90;;
12982;SDS011;6556;51.052;4.498;2022-07-29T01:12:21;2.83;;;1.17;;
12982;SDS011;6556;51.052;4.498;2022-07-29T01:14:45;0.83;;;0.83;;
12982;SDS011;6556;51.052;4.498;2022-07-29T01:17:36;0.80;;;0.80;;
12982;SDS011;6556;51.052;4.498;2022-07-29T01:19:47;0.97;;;0.73;;
12982;SDS011;6556;51.052;4.498;2022-07-29T01:22:43;1.90;;;1.40;;
12982;SDS011;6556;51.052;4.498;2022-07-29T01:30:55;0.90;;;0.90;;
12982;SDS011;6556;51.052;4.498;2022-07-29T01:33:22;1.20;;;1.00;;
12982;SDS011;6556;51.052;4.498;2022-07-29T01:36:09;1.50;;;1.10;;
12982;SDS011;6556;51.052;4.498;2022-07-29T01:38:34;1.50;;;1.30;;
12982;SDS011;6556;51.052;4.498;2022-07-29T01:41:12;1.03;;;0.80;;
12982;SDS011;6556;51.052;4.498;2022-07-29T01:43:32;1.77;;;1.40;;
12982;SDS011;6556;51.052;4.498;2022-07-29T01:46:05;2.03;;;1.17;;
12982;SDS011;6556;51.052;4.498;2022-07-29T01:48:34;0.83;;;0.80;;
12982;SDS011;6556;51.052;4.498;2022-07-29T01:50:59;1.23;;;1.12;;
12982;SDS011;6556;51.052;4.498;2022-07-29T01:53:35;1.60;;;1.33;;
12982;SDS011;6556;51.052;4.498;2022-07-29T01:55:58;1.30;;;1.20;;
12982;SDS011;6556;51.052;4.498;2022-07-29T01:58:25;1.33;;;1.23;;
12982;SDS011;6556;51.052;4.498;2022-07-29T02:00:52;1.77;;;1.10;;
12982;SDS011;6556;51.052;4.498;2022-07-29T02:03:19;1.07;;;0.97;;
12982;SDS011;6556;51.052;4.498;2022-07-29T02:05:46;1.00;;;0.90;;
12982;SDS011;6556;51.052;4.498;2022-07-29T02:08:13;1.37;;;1.00;;
12982;SDS011;6556;51.052;4.498;2022-07-29T02:10:39;2.03;;;1.50;;
12982;SDS011;6556;51.052;4.498;2022-07-29T02:13:06;2.10;;;1.37;;
12982;SDS011;6556;51.052;4.498;2022-07-29T02:15:33;1.47;;;1.37;;
12982;SDS011;6556;51.052;4.498;2022-07-29T02:18:14;1.27;;;1.10;;
12982;SDS011;6556;51.052;4.498;2022-07-29T02:20:39;1.13;;;1.13;;
12982;SDS011;6556;51.052;4.498;2022-07-29T02:23:06;1.20;;;1.10;;
12982;SDS011;6556;51.052;4.498;2022-07-29T02:25:33;1.13;;;1.03;;
12982;SDS011;6556;51.052;4.498;2022-07-29T02:28:00;2.77;;;1.53;;
12982;SDS011;6556;51.052;4.498;2022-07-29T02:30:27;1.90;;;1.20;;
12982;SDS011;6556;51.052;4.498;2022-07-29T02:32:54;3.13;;;1.30;;
12982;SDS011;6556;51.052;4.498;2022-07-29T02:35:21;1.03;;;1.03;;
12982;SDS011;6556;51.052;4.498;2022-07-29T02:37:48;1.10;;;1.00;;
12982;SDS011;6556;51.052;4.498;2022-07-29T02:40:15;2.77;;;1.40;;
12982;SDS011;6556;51.052;4.498;2022-07-29T02:42:42;1.60;;;1.40;;
12982;SDS011;6556;51.052;4.498;2022-07-29T02:45:09;1.40;;;1.30;;
12982;SDS011;6556;51.052;4.498;2022-07-29T02:47:47;1.73;;;1.62;;
12982;SDS011;6556;51.052;4.498;2022-07-29T03:00:29;1.80;;;1.20;;
12982;SDS011;6556;51.052;4.498;2022-07-29T03:02:57;1.33;;;1.23;;
12982;SDS011;6556;51.052;4.498;2022-07-29T03:05:23;1.67;;;1.20;;
12982;SDS011;6556;51.052;4.498;2022-07-29T03:07:52;1.57;;;1.47;;
12982;SDS011;6556;51.052;4.498;2022-07-29T03:10:18;1.83;;;1.57;;
12982;SDS011;6556;51.052;4.498;2022-07-29T03:12:45;0.87;;;0.87;;
12982;SDS011;6556;51.052;4.498;2022-07-29T03:15:12;1.30;;;1.20;;
12982;SDS011;6556;51.052;4.498;2022-07-29T03:17:39;2.70;;;1.67;;
12982;SDS011;6556;51.052;4.498;2022-07-29T03:20:06;1.40;;;1.23;;
12982;SDS011;6556;51.052;4.498;2022-07-29T03:22:32;2.60;;;1.67;;
12982;SDS011;6556;51.052;4.498;2022-07-29T03:25:07;1.40;;;1.30;;
12982;SDS011;6556;51.052;4.498;2022-07-29T03:27:26;1.47;;;1.40;;
12982;SDS011;6556;51.052;4.498;2022-07-29T03:29:53;2.43;;;1.27;;
12982;SDS011;6556;51.052;4.498;2022-07-29T03:32:20;2.47;;;1.50;;
12982;SDS011;6556;51.052;4.498;2022-07-29T03:34:47;3.30;;;1.40;;
12982;SDS011;6556;51.052;4.498;2022-07-29T03:37:14;1.60;;;1.50;;
12982;SDS011;6556;51.052;4.498;2022-07-29T03:39:41;3.67;;;2.10;;
12982;SDS011;6556;51.052;4.498;2022-07-29T03:42:08;4.53;;;1.73;;
12982;SDS011;6556;51.052;4.498;2022-07-29T03:44:35;2.87;;;2.00;;
12982;SDS011;6556;51.052;4.498;2022-07-29T03:47:02;2.10;;;1.70;;
12982;SDS011;6556;51.052;4.498;2022-07-29T03:49:29;2.33;;;1.57;;
12982;SDS011;6556;51.052;4.498;2022-07-29T03:51:56;1.57;;;1.47;;
12982;SDS011;6556;51.052;4.498;2022-07-29T03:54:23;1.23;;;1.20;;
12982;SDS011;6556;51.052;4.498;2022-07-29T03:56:50;1.77;;;1.50;;
12982;SDS011;6556;51.052;4.498;2022-07-29T03:59:16;2.20;;;1.33;;
12982;SDS011;6556;51.052;4.498;2022-07-29T04:01:43;1.87;;;1.27;;
12982;SDS011;6556;51.052;4.498;2022-07-29T04:04:10;2.33;;;1.75;;
12982;SDS011;6556;51.052;4.498;2022-07-29T04:06:41;2.83;;;1.70;;
12982;SDS011;6556;51.052;4.498;2022-07-29T04:09:07;2.37;;;1.67;;
12982;SDS011;6556;51.052;4.498;2022-07-29T04:11:34;1.53;;;1.37;;
12982;SDS011;6556;51.052;4.498;2022-07-29T04:14:01;1.83;;;1.30;;
12982;SDS011;6556;51.052;4.498;2022-07-29T04:16:28;1.27;;;1.20;;
12982;SDS011;6556;51.052;4.498;2022-07-29T04:18:55;2.73;;;1.53;;
12982;SDS011;6556;51.052;4.498;2022-07-29T04:21:22;2.33;;;1.80;;
12982;SDS011;6556;51.052;4.498;2022-07-29T04:23:49;1.23;;;1.13;;
12982;SDS011;6556;51.052;4.498;2022-07-29T04:26:16;1.70;;;1.50;;
12982;SDS011;6556;51.052;4.498;2022-07-29T04:28:42;2.53;;;1.60;;
12982;SDS011;6556;51.052;4.498;2022-07-29T04:31:09;1.27;;;1.23;;
12982;SDS011;6556;51.052;4.498;2022-07-29T04:33:36;1.53;;;1.43;;
12982;SDS011;6556;51.052;4.498;2022-07-29T04:36:03;1.93;;;1.30;;
12982;SDS011;6556;51.052;4.498;2022-07-29T04:38:30;1.07;;;1.07;;
12982;SDS011;6556;51.052;4.498;2022-07-29T04:40:57;1.13;;;1.13;;
12982;SDS011;6556;51.052;4.498;2022-07-29T04:43:24;2.45;;;1.75;;
12982;SDS011;6556;51.052;4.498;2022-07-29T04:45:51;2.80;;;1.77;;
12982;SDS011;6556;51.052;4.498;2022-07-29T04:48:18;2.45;;;1.52;;
12982;SDS011;6556;51.052;4.498;2022-07-29T04:50:45;1.53;;;1.40;;
12982;SDS011;6556;51.052;4.498;2022-07-29T04:53:12;1.40;;;1.30;;
12982;SDS011;6556;51.052;4.498;2022-07-29T04:55:39;2.17;;;2.00;;
12982;SDS011;6556;51.052;4.498;2022-07-29T04:58:06;1.33;;;1.10;;
12982;SDS011;6556;51.052;4.498;2022-07-29T05:00:33;2.43;;;1.97;;
12982;SDS011;6556;51.052;4.498;2022-07-29T05:03:00;1.53;;;1.43;;
12982;SDS011;6556;51.052;4.498;2022-07-29T05:05:27;2.43;;;1.43;;
12982;SDS011;6556;51.052;4.498;2022-07-29T05:07:54;1.23;;;1.03;;
12982;SDS011;6556;51.052;4.498;2022-07-29T05:10:21;2.47;;;1.43;;
12982;SDS011;6556;51.052;4.498;2022-07-29T05:12:47;2.03;;;1.70;;
12982;SDS011;6556;51.052;4.498;2022-07-29T05:15:14;1.85;;;1.60;;
12982;SDS011;6556;51.052;4.498;2022-07-29T05:17:41;2.30;;;1.80;;
12982;SDS011;6556;51.052;4.498;2022-07-29T05:20:08;1.70;;;1.60;;
12982;SDS011;6556;51.052;4.498;2022-07-29T05:22:35;2.77;;;1.80;;
12982;SDS011;6556;51.052;4.498;2022-07-29T05:25:02;1.70;;;1.27;;
12982;SDS011;6556;51.052;4.498;2022-07-29T05:27:29;1.53;;;1.10;;
12982;SDS011;6556;51.052;4.498;2022-07-29T05:29:56;1.67;;;1.43;;
12982;SDS011;6556;51.052;4.498;2022-07-29T05:32:23;1.90;;;1.50;;
12982;SDS011;6556;51.052;4.498;2022-07-29T05:34:50;2.35;;;1.80;;
12982;SDS011;6556;51.052;4.498;2022-07-29T05:37:20;2.50;;;2.05;;
12982;SDS011;6556;51.052;4.498;2022-07-29T05:39:46;1.87;;;1.63;;
12982;SDS011;6556;51.052;4.498;2022-07-29T05:42:13;1.40;;;1.30;;
12982;SDS011;6556;51.052;4.498;2022-07-29T05:44:40;1.87;;;1.30;;
12982;SDS011;6556;51.052;4.498;2022-07-29T05:47:07;1.63;;;1.47;;
12982;SDS011;6556;51.052;4.498;2022-07-29T05:49:34;1.90;;;1.53;;
12982;SDS011;6556;51.052;4.498;2022-07-29T05:52:01;2.90;;;1.20;;
12982;SDS011;6556;51.052;4.498;2022-07-29T05:54:28;1.77;;;1.60;;
12982;SDS011;6556;51.052;4.498;2022-07-29T05:56:55;3.95;;;1.92;;
12982;SDS011;6556;51.052;4.498;2022-07-29T05:59:22;2.50;;;1.57;;
12982;SDS011;6556;51.052;4.498;2022-07-29T06:01:49;1.23;;;1.17;;
12982;SDS011;6556;51.052;4.498;2022-07-29T06:04:16;1.83;;;1.50;;
12982;SDS011;6556;51.052;4.498;2022-07-29T06:06:43;1.40;;;1.30;;
12982;SDS011;6556;51.052;4.498;2022-07-29T06:09:10;2.13;;;1.63;;
12982;SDS011;6556;51.052;4.498;2022-07-29T06:11:37;2.07;;;1.50;;
12982;SDS011;6556;51.052;4.498;2022-07-29T06:14:04;2.03;;;1.77;;
12982;SDS011;6556;51.052;4.498;2022-07-29T06:16:31;2.00;;;1.33;;
12982;SDS011;6556;51.052;4.498;2022-07-29T06:18:58;1.90;;;1.57;;
12982;SDS011;6556;51.052;4.498;2022-07-29T06:21:25;2.30;;;1.60;;
12982;SDS011;6556;51.052;4.498;2022-07-29T06:23:51;2.77;;;1.80;;
12982;SDS011;6556;51.052;4.498;2022-07-29T06:26:18;1.53;;;1.43;;
12982;SDS011;6556;51.052;4.498;2022-07-29T06:28:45;2.93;;;1.80;;
12982;SDS011;6556;51.052;4.498;2022-07-29T06:31:12;2.00;;;1.80;;
12982;SDS011;6556;51.052;4.498;2022-07-29T06:33:39;2.40;;;1.87;;
12982;SDS011;6556;51.052;4.498;2022-07-29T06:36:06;1.63;;;1.33;;
12982;SDS011;6556;51.052;4.498;2022-07-29T06:38:33;2.10;;;1.57;;
12982;SDS011;6556;51.052;4.498;2022-07-29T06:41:00;1.47;;;1.30;;
12982;SDS011;6556;51.052;4.498;2022-07-29T06:43:34;1.83;;;1.40;;
12982;SDS011;6556;51.052;4.498;2022-07-29T06:46:00;2.90;;;1.73;;
12982;SDS011;6556;51.052;4.498;2022-07-29T06:48:27;1.70;;;1.60;;
12982;SDS011;6556;51.052;4.498;2022-07-29T06:50:53;2.27;;;1.33;;
12982;SDS011;6556;51.052;4.498;2022-07-29T06:53:20;2.13;;;1.93;;
12982;SDS011;6556;51.052;4.498;2022-07-29T06:55:47;2.80;;;1.73;;
12982;SDS011;6556;51.052;4.498;2022-07-29T06:58:14;1.50;;;1.40;;
12982;SDS011;6556;51.052;4.498;2022-07-29T07:00:41;2.17;;;1.67;;
12982;SDS011;6556;51.052;4.498;2022-07-29T07:03:08;3.40;;;2.00;;
12982;SDS011;6556;51.052;4.498;2022-07-29T07:05:35;2.10;;;1.90;;
12982;SDS011;6556;51.052;4.498;2022-07-29T07:08:02;1.60;;;1.50;;
12982;SDS011;6556;51.052;4.498;2022-07-29T07:10:29;2.17;;;1.67;;
12982;SDS011;6556;51.052;4.498;2022-07-29T07:12:56;3.33;;;1.73;;
12982;SDS011;6556;51.052;4.498;2022-07-29T07:15:23;3.93;;;2.23;;
12982;SDS011;6556;51.052;4.498;2022-07-29T07:17:50;1.60;;;1.50;;
12982;SDS011;6556;51.052;4.498;2022-07-29T07:20:17;1.90;;;1.70;;
12982;SDS011;6556;51.052;4.498;2022-07-29T07:22:44;2.80;;;1.90;;
12982;SDS011;6556;51.052;4.498;2022-07-29T07:25:11;3.50;;;2.00;;
12982;SDS011;6556;51.052;4.498;2022-07-29T07:27:38;2.60;;;2.08;;
12982;SDS011;6556;51.052;4.498;2022-07-29T07:30:05;2.33;;;1.87;;
12982;SDS011;6556;51.052;4.498;2022-07-29T07:32:32;2.97;;;2.00;;
12982;SDS011;6556;51.052;4.498;2022-07-29T07:34:59;3.60;;;2.30;;
12982;SDS011;6556;51.052;4.498;2022-07-29T07:37:27;2.33;;;1.70;;
12982;SDS011;6556;51.052;4.498;2022-07-29T07:39:54;2.87;;;1.67;;
12982;SDS011;6556;51.052;4.498;2022-07-29T07:42:21;2.90;;;1.90;;
12982;SDS011;6556;51.052;4.498;2022-07-29T07:44:48;2.78;;;2.00;;
12982;SDS011;6556;51.052;4.498;2022-07-29T07:47:15;1.83;;;1.70;;
12982;SDS011;6556;51.052;4.498;2022-07-29T07:49:47;2.90;;;2.10;;
12982;SDS011;6556;51.052;4.498;2022-07-29T07:52:15;4.23;;;1.93;;
12982;SDS011;6556;51.052;4.498;2022-07-29T07:54:41;3.97;;;2.53;;
12982;SDS011;6556;51.052;4.498;2022-07-29T07:57:08;2.53;;;1.80;;
12982;SDS011;6556;51.052;4.498;2022-07-29T07:59:35;3.70;;;2.10;;
12982;SDS011;6556;51.052;4.498;2022-07-29T08:02:02;3.07;;;2.00;;
12982;SDS011;6556;51.052;4.498;2022-07-29T08:04:29;4.60;;;2.10;;
12982;SDS011;6556;51.052;4.498;2022-07-29T08:06:56;3.40;;;2.13;;
12982;SDS011;6556;51.052;4.498;2022-07-29T08:09:23;4.27;;;2.20;;
12982;SDS011;6556;51.052;4.498;2022-07-29T08:11:50;2.93;;;2.20;;
12982;SDS011;6556;51.052;4.498;2022-07-29T08:14:17;3.07;;;2.13;;
12982;SDS011;6556;51.052;4.498;2022-07-29T08:16:44;4.50;;;2.53;;
12982;SDS011;6556;51.052;4.498;2022-07-29T08:19:11;4.50;;;2.60;;
12982;SDS011;6556;51.052;4.498;2022-07-29T08:21:38;4.05;;;2.30;;
12982;SDS011;6556;51.052;4.498;2022-07-29T08:24:05;2.47;;;1.83;;
12982;SDS011;6556;51.052;4.498;2022-07-29T08:26:50;2.17;;;1.80;;
12982;SDS011;6556;51.052;4.498;2022-07-29T08:29:17;3.77;;;2.43;;
12982;SDS011;6556;51.052;4.498;2022-07-29T08:31:43;4.47;;;2.50;;
12982;SDS011;6556;51.052;4.498;2022-07-29T08:34:10;2.23;;;1.90;;
12982;SDS011;6556;51.052;4.498;2022-07-29T08:36:37;2.87;;;1.90;;
12982;SDS011;6556;51.052;4.498;2022-07-29T08:39:04;1.67;;;1.57;;
12982;SDS011;6556;51.052;4.498;2022-07-29T08:41:31;3.60;;;1.97;;
12982;SDS011;6556;51.052;4.498;2022-07-29T08:43:58;1.90;;;1.73;;
12982;SDS011;6556;51.052;4.498;2022-07-29T08:46:25;4.00;;;2.00;;
12982;SDS011;6556;51.052;4.498;2022-07-29T08:48:52;7.33;;;1.87;;
12982;SDS011;6556;51.052;4.498;2022-07-29T08:51:19;2.43;;;1.63;;
12982;SDS011;6556;51.052;4.498;2022-07-29T08:53:47;4.07;;;1.90;;
12982;SDS011;6556;51.052;4.498;2022-07-29T08:56:16;2.63;;;1.60;;
12982;SDS011;6556;51.052;4.498;2022-07-29T08:58:43;2.12;;;1.92;;
12982;SDS011;6556;51.052;4.498;2022-07-29T09:01:10;2.63;;;1.93;;
12982;SDS011;6556;51.052;4.498;2022-07-29T09:03:37;2.70;;;1.70;;
12982;SDS011;6556;51.052;4.498;2022-07-29T09:06:04;1.60;;;1.50;;
12982;SDS011;6556;51.052;4.498;2022-07-29T09:08:31;3.13;;;1.80;;
12982;SDS011;6556;51.052;4.498;2022-07-29T09:10:58;1.80;;;1.60;;
12982;SDS011;6556;51.052;4.498;2022-07-29T09:13:24;2.50;;;1.53;;
12982;SDS011;6556;51.052;4.498;2022-07-29T09:15:51;1.57;;;1.47;;
12982;SDS011;6556;51.052;4.498;2022-07-29T09:18:35;2.30;;;1.60;;
12982;SDS011;6556;51.052;4.498;2022-07-29T09:21:00;2.85;;;1.67;;
12982;SDS011;6556;51.052;4.498;2022-07-29T09:24:05;1.73;;;1.40;;
12982;SDS011;6556;51.052;4.498;2022-07-29T09:26:35;1.37;;;1.27;;
12982;SDS011;6556;51.052;4.498;2022-07-29T09:29:07;1.57;;;1.47;;
12982;SDS011;6556;51.052;4.498;2022-07-29T09:31:34;1.23;;;1.23;;
12982;SDS011;6556;51.052;4.498;2022-07-29T09:34:00;2.30;;;1.70;;
12982;SDS011;6556;51.052;4.498;2022-07-29T09:36:27;1.60;;;1.50;;
12982;SDS011;6556;51.052;4.498;2022-07-29T09:38:57;1.80;;;1.67;;
12982;SDS011;6556;51.052;4.498;2022-07-29T09:41:24;1.33;;;1.13;;
12982;SDS011;6556;51.052;4.498;2022-07-29T09:43:57;2.87;;;1.43;;
12982;SDS011;6556;51.052;4.498;2022-07-29T09:46:24;1.50;;;1.40;;
12982;SDS011;6556;51.052;4.498;2022-07-29T09:49:06;1.50;;;1.40;;
12982;SDS011;6556;51.052;4.498;2022-07-29T09:51:35;1.60;;;1.50;;
12982;SDS011;6556;51.052;4.498;2022-07-29T09:54:24;2.03;;;1.23;;
12982;SDS011;6556;51.052;4.498;2022-07-29T09:56:41;2.63;;;1.50;;
12982;SDS011;6556;51.052;4.498;2022-07-29T09:59:08;1.70;;;1.60;;
12982;SDS011;6556;51.052;4.498;2022-07-29T10:01:35;1.43;;;1.27;;
12982;SDS011;6556;51.052;4.498;2022-07-29T10:04:03;1.30;;;1.20;;
12982;SDS011;6556;51.052;4.498;2022-07-29T10:06:29;1.43;;;1.30;;
12982;SDS011;6556;51.052;4.498;2022-07-29T10:09:18;2.00;;;1.60;;
12982;SDS011;6556;51.052;4.498;2022-07-29T10:11:35;1.57;;;1.50;;
12982;SDS011;6556;51.052;4.498;2022-07-29T10:14:02;2.57;;;1.70;;
12982;SDS011;6556;51.052;4.498;2022-07-29T10:16:29;1.70;;;1.40;;
12982;SDS011;6556;51.052;4.498;2022-07-29T10:18:55;1.73;;;1.37;;
12982;SDS011;6556;51.052;4.498;2022-07-29T10:21:22;2.37;;;1.60;;
12982;SDS011;6556;51.052;4.498;2022-07-29T10:23:49;4.07;;;1.70;;
12982;SDS011;6556;51.052;4.498;2022-07-29T10:26:16;1.50;;;1.30;;
12982;SDS011;6556;51.052;4.498;2022-07-29T10:28:43;1.80;;;1.43;;
12982;SDS011;6556;51.052;4.498;2022-07-29T10:31:13;1.40;;;1.30;;
12982;SDS011;6556;51.052;4.498;2022-07-29T10:36:24;1.17;;;1.07;;
12982;SDS011;6556;51.052;4.498;2022-07-29T10:38:51;2.33;;;2.13;;
12982;SDS011;6556;51.052;4.498;2022-07-29T10:41:39;1.50;;;1.40;;
12982;SDS011;6556;51.052;4.498;2022-07-29T10:44:05;2.60;;;1.80;;
12982;SDS011;6556;51.052;4.498;2022-07-29T10:46:36;1.80;;;1.52;;
12982;SDS011;6556;51.052;4.498;2022-07-29T10:52:09;2.00;;;1.77;;
12982;SDS011;6556;51.052;4.498;2022-07-29T10:54:42;1.57;;;1.30;;
12982;SDS011;6556;51.052;4.498;2022-07-29T10:59:38;2.33;;;1.30;;
12982;SDS011;6556;51.052;4.498;2022-07-29T11:05:03;1.43;;;1.30;;
12982;SDS011;6556;51.052;4.498;2022-07-29T11:07:29;2.60;;;1.63;;
12982;SDS011;6556;51.052;4.498;2022-07-29T11:15:09;1.90;;;1.50;;
12982;SDS011;6556;51.052;4.498;2022-07-29T11:18:18;2.03;;;1.50;;
12982;SDS011;6556;51.052;4.498;2022-07-29T11:20:33;1.73;;;1.60;;
12982;SDS011;6556;51.052;4.498;2022-07-29T11:23:18;1.50;;;1.40;;
12982;SDS011;6556;51.052;4.498;2022-07-29T11:25:44;1.50;;;1.20;;
12982;SDS011;6556;51.052;4.498;2022-07-29T11:28:15;2.73;;;1.60;;
12982;SDS011;6556;51.052;4.498;2022-07-29T11:30:47;2.30;;;1.67;;
12982;SDS011;6556;51.052;4.498;2022-07-29T11:33:30;1.57;;;1.30;;
12982;SDS011;6556;51.052;4.498;2022-07-29T11:36:08;1.37;;;1.20;;
12982;SDS011;6556;51.052;4.498;2022-07-29T11:38:34;2.03;;;1.50;;
12982;SDS011;6556;51.052;4.498;2022-07-29T11:43:47;1.63;;;1.40;;
12982;SDS011;6556;51.052;4.498;2022-07-29T11:46:13;2.30;;;1.60;;
12982;SDS011;6556;51.052;4.498;2022-07-29T11:48:43;1.87;;;1.73;;
12982;SDS011;6556;51.052;4.498;2022-07-29T11:51:10;1.60;;;1.50;;
12982;SDS011;6556;51.052;4.498;2022-07-29T11:53:39;1.30;;;1.30;;
12982;SDS011;6556;51.052;4.498;2022-07-29T11:56:08;1.53;;;1.30;;
12982;SDS011;6556;51.052;4.498;2022-07-29T11:58:33;1.60;;;1.50;;
12982;SDS011;6556;51.052;4.498;2022-07-29T12:01:00;1.80;;;1.70;;
12982;SDS011;6556;51.052;4.498;2022-07-29T12:03:28;3.17;;;1.60;;
12982;SDS011;6556;51.052;4.498;2022-07-29T12:05:54;1.70;;;1.60;;
12982;SDS011;6556;51.052;4.498;2022-07-29T12:08:21;1.50;;;1.40;;
12982;SDS011;6556;51.052;4.498;2022-07-29T12:10:49;2.87;;;1.77;;
12982;SDS011;6556;51.052;4.498;2022-07-29T12:13:17;1.30;;;1.17;;
12982;SDS011;6556;51.052;4.498;2022-07-29T12:15:51;1.90;;;1.70;;
12982;SDS011;6556;51.052;4.498;2022-07-29T12:18:11;2.67;;;1.80;;
12982;SDS011;6556;51.052;4.498;2022-07-29T12:20:37;1.50;;;1.40;;
12982;SDS011;6556;51.052;4.498;2022-07-29T12:23:07;3.27;;;1.70;;
12982;SDS011;6556;51.052;4.498;2022-07-29T12:25:34;1.63;;;1.50;;
12982;SDS011;6556;51.052;4.498;2022-07-29T12:28:02;1.47;;;1.37;;
12982;SDS011;6556;51.052;4.498;2022-07-29T12:30:41;1.40;;;1.30;;
12982;SDS011;6556;51.052;4.498;2022-07-29T12:35:52;2.43;;;1.80;;
12982;SDS011;6556;51.052;4.498;2022-07-29T12:38:18;1.50;;;1.40;;
12982;SDS011;6556;51.052;4.498;2022-07-29T12:40:46;3.47;;;1.90;;
12982;SDS011;6556;51.052;4.498;2022-07-29T12:43:13;1.60;;;1.50;;
12982;SDS011;6556;51.052;4.498;2022-07-29T12:45:40;2.13;;;1.80;;
12982;SDS011;6556;51.052;4.498;2022-07-29T12:48:06;1.90;;;1.60;;
12982;SDS011;6556;51.052;4.498;2022-07-29T12:50:33;2.13;;;1.90;;
12982;SDS011;6556;51.052;4.498;2022-07-29T12:53:19;3.87;;;2.20;;
12982;SDS011;6556;51.052;4.498;2022-07-29T12:55:45;4.53;;;2.47;;
12982;SDS011;6556;51.052;4.498;2022-07-29T12:58:11;2.50;;;2.03;;
12982;SDS011;6556;51.052;4.498;2022-07-29T13:00:38;3.73;;;2.67;;
12982;SDS011;6556;51.052;4.498;2022-07-29T13:03:05;2.30;;;2.07;;
12982;SDS011;6556;51.052;4.498;2022-07-29T13:05:41;4.37;;;2.27;;
12982;SDS011;6556;51.052;4.498;2022-07-29T13:08:14;3.67;;;2.13;;
12982;SDS011;6556;51.052;4.498;2022-07-29T13:10:41;4.45;;;2.70;;
12982;SDS011;6556;51.052;4.498;2022-07-29T13:13:12;2.80;;;1.90;;
12982;SDS011;6556;51.052;4.498;2022-07-29T13:15:35;5.03;;;2.30;;
12982;SDS011;6556;51.052;4.498;2022-07-29T13:18:02;3.70;;;2.57;;
12982;SDS011;6556;51.052;4.498;2022-07-29T13:20:29;3.03;;;1.83;;
12982;SDS011;6556;51.052;4.498;2022-07-29T13:22:56;2.23;;;1.80;;
12982;SDS011;6556;51.052;4.498;2022-07-29T13:27:52;4.63;;;2.80;;
12982;SDS011;6556;51.052;4.498;2022-07-29T13:30:19;3.80;;;2.53;;
12982;SDS011;6556;51.052;4.498;2022-07-29T13:32:46;3.77;;;2.20;;
12982;SDS011;6556;51.052;4.498;2022-07-29T13:35:13;4.23;;;2.80;;
12982;SDS011;6556;51.052;4.498;2022-07-29T13:37:40;3.27;;;2.20;;
12982;SDS011;6556;51.052;4.498;2022-07-29T13:40:07;1.90;;;1.80;;
12982;SDS011;6556;51.052;4.498;2022-07-29T13:42:34;2.67;;;2.00;;
12982;SDS011;6556;51.052;4.498;2022-07-29T13:45:01;4.37;;;2.20;;
12982;SDS011;6556;51.052;4.498;2022-07-29T13:47:28;3.53;;;2.07;;
12982;SDS011;6556;51.052;4.498;2022-07-29T13:49:55;4.43;;;2.27;;
12982;SDS011;6556;51.052;4.498;2022-07-29T13:52:22;3.00;;;1.83;;
12982;SDS011;6556;51.052;4.498;2022-07-29T13:54:48;2.53;;;1.90;;
12982;SDS011;6556;51.052;4.498;2022-07-29T13:57:15;3.03;;;2.00;;
12982;SDS011;6556;51.052;4.498;2022-07-29T13:59:42;3.20;;;1.50;;
12982;SDS011;6556;51.052;4.498;2022-07-29T14:02:10;1.53;;;1.40;;
12982;SDS011;6556;51.052;4.498;2022-07-29T14:04:36;2.33;;;1.60;;
12982;SDS011;6556;51.052;4.498;2022-07-29T14:07:03;1.53;;;1.40;;
12982;SDS011;6556;51.052;4.498;2022-07-29T14:09:30;2.33;;;1.73;;
12982;SDS011;6556;51.052;4.498;2022-07-29T14:11:57;1.70;;;1.60;;
12982;SDS011;6556;51.052;4.498;2022-07-29T14:14:24;1.43;;;1.33;;
12982;SDS011;6556;51.052;4.498;2022-07-29T14:16:51;2.93;;;1.80;;
12982;SDS011;6556;51.052;4.498;2022-07-29T14:19:18;1.63;;;1.50;;
12982;SDS011;6556;51.052;4.498;2022-07-29T14:21:45;2.47;;;1.93;;
12982;SDS011;6556;51.052;4.498;2022-07-29T14:24:12;3.40;;;1.92;;
12982;SDS011;6556;51.052;4.498;2022-07-29T14:26:39;1.70;;;1.33;;
12982;SDS011;6556;51.052;4.498;2022-07-29T14:29:06;3.53;;;1.87;;
12982;SDS011;6556;51.052;4.498;2022-07-29T14:31:33;1.63;;;1.40;;
12982;SDS011;6556;51.052;4.498;2022-07-29T14:34:01;2.17;;;1.97;;
12982;SDS011;6556;51.052;4.498;2022-07-29T14:36:29;1.70;;;1.60;;
12982;SDS011;6556;51.052;4.498;2022-07-29T14:38:56;2.27;;;1.77;;
12982;SDS011;6556;51.052;4.498;2022-07-29T14:41:23;3.03;;;1.50;;
12982;SDS011;6556;51.052;4.498;2022-07-29T14:43:50;1.83;;;1.33;;
12982;SDS011;6556;51.052;4.498;2022-07-29T14:46:17;1.77;;;1.67;;
12982;SDS011;6556;51.052;4.498;2022-07-29T14:48:44;1.80;;;1.50;;
12982;SDS011;6556;51.052;4.498;2022-07-29T14:51:11;2.00;;;1.70;;
12982;SDS011;6556;51.052;4.498;2022-07-29T14:53:38;1.98;;;1.70;;
12982;SDS011;6556;51.052;4.498;2022-07-29T14:56:05;2.45;;;1.83;;
12982;SDS011;6556;51.052;4.498;2022-07-29T14:58:31;2.22;;;2.03;;
12982;SDS011;6556;51.052;4.498;2022-07-29T15:00:58;2.50;;;1.90;;
12982;SDS011;6556;51.052;4.498;2022-07-29T15:03:25;2.60;;;2.17;;
12982;SDS011;6556;51.052;4.498;2022-07-29T15:05:52;4.33;;;1.90;;
12982;SDS011;6556;51.052;4.498;2022-07-29T15:08:20;4.20;;;1.70;;
12982;SDS011;6556;51.052;4.498;2022-07-29T15:10:46;2.47;;;1.80;;
12982;SDS011;6556;51.052;4.498;2022-07-29T15:13:13;2.53;;;1.70;;
12982;SDS011;6556;51.052;4.498;2022-07-29T15:15:40;2.20;;;2.00;;
12982;SDS011;6556;51.052;4.498;2022-07-29T15:18:07;3.40;;;2.17;;
12982;SDS011;6556;51.052;4.498;2022-07-29T15:20:34;3.83;;;2.10;;
12982;SDS011;6556;51.052;4.498;2022-07-29T15:23:01;2.33;;;1.60;;
12982;SDS011;6556;51.052;4.498;2022-07-29T15:25:28;3.15;;;2.30;;
12982;SDS011;6556;51.052;4.498;2022-07-29T15:27:55;4.45;;;2.25;;
12982;SDS011;6556;51.052;4.498;2022-07-29T15:30:22;2.85;;;2.20;;
12982;SDS011;6556;51.052;4.498;2022-07-29T15:32:49;2.72;;;2.30;;
12982;SDS011;6556;51.052;4.498;2022-07-29T15:35:16;3.05;;;2.30;;
12982;SDS011;6556;51.052;4.498;2022-07-29T15:37:43;2.87;;;2.05;;
12982;SDS011;6556;51.052;4.498;2022-07-29T15:40:10;2.73;;;1.80;;
12982;SDS011;6556;51.052;4.498;2022-07-29T15:42:37;2.57;;;2.03;;
12982;SDS011;6556;51.052;4.498;2022-07-29T15:45:04;2.67;;;1.70;;